createdAt,value
2019-02-09T00:01:52.693Z,-1.60
2019-02-09T00:04:23.557Z,-1.60
2019-02-09T00:06:53.367Z,-1.60
2019-02-09T00:09:23.189Z,-1.50
2019-02-09T00:11:53.004Z,-1.50
2019-02-09T00:14:22.954Z,-1.50
2019-02-09T00:16:52.861Z,-1.60
2019-02-09T00:19:22.702Z,-1.60
2019-02-09T00:21:52.505Z,-1.60
2019-02-09T00:24:22.336Z,-1.60
2019-02-09T00:26:52.213Z,-1.60
2019-02-09T00:29:22.038Z,-1.50
2019-02-09T00:31:51.848Z,-1.60
2019-02-09T00:34:21.665Z,-1.60
2019-02-09T00:36:51.557Z,-1.60
2019-02-09T00:39:21.370Z,-1.60
2019-02-09T00:41:51.122Z,-1.70
2019-02-09T00:44:21.018Z,-1.70
2019-02-09T00:46:50.841Z,-1.70
2019-02-09T00:49:20.900Z,-1.70
2019-02-09T00:51:50.726Z,-1.70
2019-02-09T00:54:20.545Z,-1.60
2019-02-09T00:56:50.439Z,-1.60
2019-02-09T00:59:20.429Z,-1.60
2019-02-09T01:01:50.431Z,-1.50
2019-02-09T01:04:20.489Z,-1.50
2019-02-09T01:06:50.496Z,-1.50
2019-02-09T01:09:20.329Z,-1.50
2019-02-09T01:11:50.172Z,-1.50
2019-02-09T01:14:20.129Z,-1.50
2019-02-09T01:16:49.879Z,-1.50
2019-02-09T01:19:19.837Z,-1.40
2019-02-09T01:21:49.729Z,-1.50
2019-02-09T01:24:19.621Z,-1.50
2019-02-09T01:26:49.452Z,-1.50
2019-02-09T01:29:19.596Z,-1.50
2019-02-09T01:31:49.800Z,-1.50
2019-02-09T01:34:19.533Z,-1.50
2019-02-09T01:36:49.458Z,-1.50
2019-02-09T01:39:19.353Z,-1.50
2019-02-09T01:41:49.237Z,-1.50
2019-02-09T01:44:24.304Z,-1.40
2019-02-09T01:46:54.161Z,-1.30
2019-02-09T01:49:24.288Z,-1.30
2019-02-09T01:51:55.118Z,-1.20
2019-02-09T01:54:25.249Z,-1.20
2019-02-09T01:56:55.409Z,-1.20
2019-02-09T01:59:25.286Z,-1.20
2019-02-09T02:01:55.426Z,-1.10
2019-02-09T02:04:25.526Z,-1.10
2019-02-09T02:06:55.332Z,-1.10
2019-02-09T02:09:25.207Z,-1.10
2019-02-09T02:11:55.028Z,-1.20
2019-02-09T02:14:24.908Z,-1.20
2019-02-09T02:16:54.801Z,-1.30
2019-02-09T02:19:24.611Z,-1.40
2019-02-09T02:21:54.492Z,-1.40
2019-02-09T02:24:24.371Z,-1.40
2019-02-09T02:26:54.230Z,-1.40
2019-02-09T02:29:24.032Z,-1.30
2019-02-09T02:31:53.953Z,-1.30
2019-02-09T02:34:23.841Z,-1.20
2019-02-09T02:36:53.745Z,-1.20
2019-02-09T02:39:23.573Z,-1.20
2019-02-09T02:41:53.465Z,-1.30
2019-02-09T02:44:23.424Z,-1.40
2019-02-09T02:46:53.276Z,-1.50
2019-02-09T02:49:23.042Z,-1.70
2019-02-09T02:51:52.764Z,-1.80
2019-02-09T02:54:22.539Z,-1.90
2019-02-09T02:56:52.357Z,-2.00
2019-02-09T02:59:22.248Z,-2.00
2019-02-09T03:01:52.135Z,-2.20
2019-02-09T03:04:21.951Z,-2.30
2019-02-09T03:06:51.826Z,-2.40
2019-02-09T03:09:21.586Z,-2.40
2019-02-09T03:11:51.427Z,-2.50
2019-02-09T03:14:21.273Z,-2.50
2019-02-09T03:16:51.121Z,-2.60
2019-02-09T03:19:20.852Z,-2.70
2019-02-09T03:21:50.647Z,-2.70
2019-02-09T03:24:20.971Z,-2.70
2019-02-09T03:26:50.914Z,-2.80
2019-02-09T03:29:20.717Z,-2.80
2019-02-09T03:31:50.647Z,-2.80
2019-02-09T03:34:20.368Z,-2.80
2019-02-09T03:36:50.234Z,-2.80
2019-02-09T03:39:20.016Z,-2.80
2019-02-09T03:41:49.857Z,-2.90
2019-02-09T03:44:19.646Z,-2.80
2019-02-09T03:46:49.677Z,-2.80
2019-02-09T03:49:19.571Z,-2.70
2019-02-09T03:51:49.462Z,-2.80
2019-02-09T03:54:19.518Z,-2.80
2019-02-09T03:56:50.960Z,-2.80
2019-02-09T03:59:20.942Z,-2.90
2019-02-09T04:01:50.816Z,-2.90
2019-02-09T04:04:20.816Z,-2.90
2019-02-09T04:06:50.664Z,-2.80
2019-02-09T04:09:20.535Z,-2.70
2019-02-09T04:11:50.247Z,-2.70
2019-02-09T04:14:20.054Z,-2.70
2019-02-09T04:16:49.807Z,-2.70
2019-02-09T04:19:19.658Z,-2.60
2019-02-09T04:21:49.422Z,-2.60
2019-02-09T04:24:19.237Z,-2.60
2019-02-09T04:26:49.053Z,-2.50
2019-02-09T04:29:18.816Z,-2.50
2019-02-09T04:31:48.650Z,-2.50
2019-02-09T04:34:18.493Z,-2.50
2019-02-09T04:36:48.540Z,-2.40
2019-02-09T04:39:18.393Z,-2.40
2019-02-09T04:41:48.498Z,-2.30
2019-02-09T04:44:18.340Z,-2.40
2019-02-09T04:46:48.201Z,-2.50
2019-02-09T04:49:18.050Z,-2.50
2019-02-09T04:51:47.856Z,-2.50
2019-02-09T04:54:17.683Z,-2.60
2019-02-09T04:56:47.454Z,-2.60
2019-02-09T04:59:17.516Z,-2.60
2019-02-09T05:01:47.390Z,-2.50
2019-02-09T05:04:17.280Z,-2.50
2019-02-09T05:06:47.173Z,-2.40
2019-02-09T05:09:17.047Z,-2.30
2019-02-09T05:11:46.967Z,-2.20
2019-02-09T05:14:16.758Z,-2.10
2019-02-09T05:16:46.822Z,-1.90
2019-02-09T05:19:16.818Z,-1.80
2019-02-09T05:21:46.598Z,-1.70
2019-02-09T05:24:16.409Z,-1.60
2019-02-09T05:26:46.478Z,-1.60
2019-02-09T05:29:16.301Z,-1.60
2019-02-09T05:31:46.193Z,-1.60
2019-02-09T05:34:16.011Z,-1.50
2019-02-09T05:36:45.933Z,-1.50
2019-02-09T05:39:15.932Z,-1.40
2019-02-09T05:41:46.021Z,-1.40
2019-02-09T05:44:17.232Z,-1.20
2019-02-09T05:46:47.465Z,-1.20
2019-02-09T05:49:17.467Z,-1.10
2019-02-09T05:51:48.158Z,-1.10
2019-02-09T05:54:18.250Z,-1.10
2019-02-09T05:56:48.525Z,-1.00
2019-02-09T05:59:18.704Z,-1.00
2019-02-09T06:01:48.660Z,-1.00
2019-02-09T06:04:18.584Z,-1.10
2019-02-09T06:06:48.468Z,-1.10
2019-02-09T06:09:18.307Z,-1.10
2019-02-09T06:11:48.230Z,-1.10
2019-02-09T06:14:18.110Z,-1.00
2019-02-09T06:16:48.041Z,-0.90
2019-02-09T06:19:17.868Z,-0.90
2019-02-09T06:21:47.726Z,-0.80
2019-02-09T06:24:17.525Z,-0.80
2019-02-09T06:26:47.386Z,-0.70
2019-02-09T06:29:17.120Z,-0.60
2019-02-09T06:31:46.869Z,-0.40
2019-02-09T06:34:16.633Z,-0.30
2019-02-09T06:36:46.529Z,-0.10
2019-02-09T06:39:16.323Z,0.20
2019-02-09T06:41:46.174Z,0.60
2019-02-09T06:44:15.880Z,0.80
2019-02-09T06:46:45.801Z,0.90
2019-02-09T06:49:15.822Z,1.10
2019-02-09T06:51:45.664Z,1.10
2019-02-09T06:54:15.494Z,1.20
2019-02-09T06:56:45.313Z,1.20
2019-02-09T06:59:15.036Z,1.20
2019-02-09T07:01:48.799Z,1.30
2019-02-09T07:04:17.378Z,1.30
2019-02-09T07:06:47.230Z,1.30
2019-02-09T07:09:17.133Z,1.30
2019-02-09T07:11:46.946Z,1.40
2019-02-09T07:14:16.823Z,1.40
2019-02-09T07:16:46.712Z,1.60
2019-02-09T07:19:16.444Z,1.70
2019-02-09T07:21:46.277Z,1.80
2019-02-09T07:24:16.012Z,1.90
2019-02-09T07:26:45.938Z,2.00
2019-02-09T07:29:15.663Z,2.10
2019-02-09T07:31:45.435Z,2.20
2019-02-09T07:34:15.232Z,2.40
2019-02-09T07:36:45.165Z,2.50
2019-02-09T07:39:15.531Z,2.60
2019-02-09T07:41:45.474Z,2.70
2019-02-09T07:44:15.380Z,2.90
2019-02-09T07:46:45.415Z,3.10
2019-02-09T07:49:15.713Z,3.40
2019-02-09T07:51:45.660Z,3.60
2019-02-09T07:54:15.773Z,3.80
2019-02-09T07:56:45.846Z,4.00
2019-02-09T07:59:15.727Z,4.20
2019-02-09T08:01:45.468Z,4.50
2019-02-09T08:04:15.377Z,4.80
2019-02-09T08:06:45.588Z,5.00
2019-02-09T08:09:15.413Z,5.20
2019-02-09T08:11:45.421Z,5.30
2019-02-09T08:14:15.862Z,5.50
2019-02-09T08:16:45.730Z,5.60
2019-02-09T08:19:15.716Z,5.80
2019-02-09T08:21:45.904Z,5.90
2019-02-09T08:24:15.947Z,6.00
2019-02-09T08:26:45.895Z,6.00
2019-02-09T08:29:15.734Z,6.70
2019-02-09T08:31:45.711Z,7.80
2019-02-09T08:34:15.593Z,8.90
2019-02-09T08:36:45.357Z,10.80
2019-02-09T08:39:15.516Z,11.70
2019-02-09T08:41:45.900Z,12.10
2019-02-09T08:44:15.985Z,13.20
2019-02-09T08:46:46.063Z,14.00
2019-02-09T08:49:15.944Z,14.50
2019-02-09T08:51:45.987Z,15.20
2019-02-09T08:54:15.825Z,14.80
2019-02-09T08:56:45.636Z,14.60
2019-02-09T08:59:15.615Z,13.60
2019-02-09T09:01:45.481Z,13.60
2019-02-09T09:04:15.273Z,13.60
2019-02-09T09:06:45.086Z,13.70
2019-02-09T09:09:15.106Z,13.20
2019-02-09T09:11:45.298Z,13.30
2019-02-09T09:14:15.294Z,14.00
2019-02-09T09:16:45.551Z,14.70
2019-02-09T09:19:15.326Z,16.60
2019-02-09T09:21:45.243Z,17.50
2019-02-09T09:24:15.019Z,17.80
2019-02-09T09:26:46.113Z,19.30
2019-02-09T09:29:16.139Z,19.00
2019-02-09T09:31:47.092Z,18.40
2019-02-09T09:34:16.908Z,18.20
2019-02-09T09:36:46.772Z,18.40
2019-02-09T09:39:16.709Z,18.80
2019-02-09T09:41:46.705Z,19.40
2019-02-09T09:44:16.566Z,19.20
2019-02-09T09:46:46.498Z,19.80
2019-02-09T09:49:16.560Z,17.90
2019-02-09T09:51:46.474Z,15.50
2019-02-09T09:54:16.586Z,13.90
2019-02-09T09:56:46.651Z,13.50
2019-02-09T09:59:16.656Z,14.60
2019-02-09T10:01:46.534Z,16.20
2019-02-09T10:04:16.512Z,17.30
2019-02-09T10:06:46.590Z,18.60
2019-02-09T10:09:16.704Z,20.00
2019-02-09T10:11:47.114Z,19.70
2019-02-09T10:14:16.987Z,17.30
2019-02-09T10:16:48.113Z,16.60
2019-02-09T10:19:18.305Z,16.20
2019-02-09T10:21:48.213Z,16.40
2019-02-09T10:24:18.140Z,16.60
2019-02-09T10:26:48.062Z,17.70
2019-02-09T10:29:17.906Z,16.50
2019-02-09T10:31:47.724Z,16.00
2019-02-09T10:34:17.887Z,15.20
2019-02-09T10:36:47.764Z,14.80
2019-02-09T10:39:17.581Z,15.30
2019-02-09T10:41:47.600Z,15.80
2019-02-09T10:44:20.714Z,15.20
2019-02-09T10:46:50.586Z,15.30
2019-02-09T10:49:20.435Z,15.30
2019-02-09T10:51:50.329Z,15.20
2019-02-09T10:54:20.289Z,15.50
2019-02-09T10:56:50.225Z,15.80
2019-02-09T10:59:20.121Z,16.60
2019-02-09T11:01:50.044Z,17.40
2019-02-09T11:04:20.000Z,17.00
2019-02-09T11:06:50.014Z,16.50
2019-02-09T11:09:25.071Z,16.30
2019-02-09T11:11:55.011Z,16.50
2019-02-09T11:14:24.846Z,16.50
2019-02-09T11:16:54.823Z,16.30
2019-02-09T11:19:27.854Z,16.00
2019-02-09T11:21:57.944Z,16.50
2019-02-09T11:24:27.854Z,16.70
2019-02-09T11:26:57.759Z,16.80
2019-02-09T11:29:27.720Z,16.20
2019-02-09T11:31:57.917Z,15.00
2019-02-09T11:34:27.762Z,14.00
2019-02-09T11:36:58.012Z,13.50
2019-02-09T11:39:27.820Z,13.20
2019-02-09T11:41:57.624Z,13.90
2019-02-09T11:44:27.522Z,14.50
2019-02-09T11:46:57.374Z,14.40
2019-02-09T11:49:27.192Z,14.50
2019-02-09T11:51:57.029Z,14.50
2019-02-09T11:54:26.938Z,14.30
2019-02-09T11:56:57.084Z,13.70
2019-02-09T11:59:27.089Z,13.40
2019-02-09T12:01:57.172Z,13.10
2019-02-09T12:04:27.078Z,13.30
2019-02-09T12:06:56.924Z,13.50
2019-02-09T12:09:26.826Z,13.60
2019-02-09T12:11:56.708Z,14.70
2019-02-09T12:14:26.535Z,16.10
2019-02-09T12:16:56.428Z,16.40
2019-02-09T12:19:26.393Z,16.20
2019-02-09T12:21:56.218Z,16.30
2019-02-09T12:24:26.822Z,16.00
2019-02-09T12:26:56.870Z,16.30
2019-02-09T12:29:26.793Z,16.20
2019-02-09T12:31:56.637Z,16.90
2019-02-09T12:34:26.474Z,17.30
2019-02-09T12:36:56.342Z,17.70
2019-02-09T12:39:27.083Z,17.20
2019-02-09T12:41:57.167Z,16.80
2019-02-09T12:44:27.149Z,16.30
2019-02-09T12:46:57.346Z,16.70
2019-02-09T12:49:27.218Z,16.70
2019-02-09T12:52:00.552Z,17.30
2019-02-09T12:54:31.334Z,17.00
2019-02-09T12:57:01.113Z,16.10
2019-02-09T12:59:30.857Z,14.90
2019-02-09T13:02:00.884Z,13.60
2019-02-09T13:04:31.070Z,12.90
2019-02-09T13:07:01.074Z,12.20
2019-02-09T13:09:30.976Z,12.20
2019-02-09T13:12:00.912Z,12.40
2019-02-09T13:14:30.938Z,13.00
2019-02-09T13:17:00.769Z,13.00
2019-02-09T13:19:30.597Z,13.20
2019-02-09T13:22:00.408Z,13.50
2019-02-09T13:24:30.318Z,13.50
2019-02-09T13:27:00.236Z,13.60
2019-02-09T13:29:30.264Z,13.50
2019-02-09T13:32:00.172Z,12.90
2019-02-09T13:34:30.280Z,13.00
2019-02-09T13:37:00.224Z,12.80
2019-02-09T13:39:30.014Z,13.00
2019-02-09T13:41:59.934Z,13.10
2019-02-09T13:44:29.675Z,13.70
2019-02-09T13:46:59.529Z,13.90
2019-02-09T13:49:29.589Z,14.10
2019-02-09T13:51:59.736Z,13.70
2019-02-09T13:54:29.511Z,13.90
2019-02-09T13:56:59.597Z,14.70
2019-02-09T13:59:29.522Z,15.00
2019-02-09T14:01:59.480Z,14.50
2019-02-09T14:04:29.333Z,14.20
2019-02-09T14:06:59.242Z,14.70
2019-02-09T14:09:29.529Z,14.90
2019-02-09T14:11:59.622Z,14.90
2019-02-09T14:14:29.445Z,14.40
2019-02-09T14:16:59.368Z,13.60
2019-02-09T14:19:29.218Z,12.70
2019-02-09T14:21:59.024Z,12.20
2019-02-09T14:24:28.930Z,11.50
2019-02-09T14:26:59.098Z,11.00
2019-02-09T14:29:29.028Z,10.60
2019-02-09T14:31:59.109Z,10.30
2019-02-09T14:34:29.561Z,10.20
2019-02-09T14:36:59.566Z,10.10
2019-02-09T14:39:29.878Z,9.90
2019-02-09T14:41:59.852Z,9.70
2019-02-09T14:44:29.921Z,9.60
2019-02-09T14:46:59.830Z,9.30
2019-02-09T14:49:29.682Z,9.10
2019-02-09T14:51:59.590Z,9.10
2019-02-09T14:54:29.358Z,9.00
2019-02-09T14:56:59.190Z,8.80
2019-02-09T14:59:29.030Z,8.50
2019-02-09T15:01:59.296Z,8.30
2019-02-09T15:04:29.385Z,8.00
2019-02-09T15:06:59.288Z,7.90
2019-02-09T15:09:29.515Z,7.80
2019-02-09T15:11:59.613Z,7.60
2019-02-09T15:14:29.541Z,7.50
2019-02-09T15:17:05.597Z,7.30
2019-02-09T15:19:35.902Z,7.20
2019-02-09T15:22:05.930Z,7.20
2019-02-09T15:24:35.798Z,7.20
2019-02-09T15:27:05.792Z,7.10
2019-02-09T15:29:35.768Z,7.10
2019-02-09T15:32:06.281Z,7.10
2019-02-09T15:34:36.266Z,7.00
2019-02-09T15:37:06.386Z,7.00
2019-02-09T15:39:36.240Z,6.90
2019-02-09T15:42:06.263Z,6.90
2019-02-09T15:44:36.554Z,6.90
2019-02-09T15:47:06.601Z,6.80
2019-02-09T15:49:36.381Z,6.80
2019-02-09T15:52:06.299Z,6.70
2019-02-09T15:54:36.310Z,6.60
2019-02-09T15:57:06.222Z,6.50
2019-02-09T15:59:36.057Z,6.40
2019-02-09T16:02:06.109Z,6.30
2019-02-09T16:04:36.261Z,6.20
2019-02-09T16:07:06.155Z,6.20
2019-02-09T16:09:36.211Z,6.10
2019-02-09T16:12:06.164Z,6.00
2019-02-09T16:14:36.362Z,6.00
2019-02-09T16:17:06.450Z,6.00
2019-02-09T16:19:36.224Z,6.00
2019-02-09T16:22:06.463Z,6.00
2019-02-09T16:24:36.217Z,6.10
2019-02-09T16:27:07.886Z,6.00
2019-02-09T16:29:37.722Z,6.00
2019-02-09T16:32:07.781Z,6.00
2019-02-09T16:34:37.733Z,5.90
2019-02-09T16:37:07.904Z,5.80
2019-02-09T16:39:37.736Z,5.80
2019-02-09T16:42:07.650Z,5.80
2019-02-09T16:44:37.515Z,5.80
2019-02-09T16:47:07.675Z,5.80
2019-02-09T16:49:37.702Z,5.70
2019-02-09T16:52:07.783Z,5.70
2019-02-09T16:54:37.648Z,5.70
2019-02-09T16:57:07.845Z,5.60
2019-02-09T16:59:37.673Z,5.60
2019-02-09T17:02:07.885Z,5.60
2019-02-09T17:04:37.703Z,5.50
2019-02-09T17:07:07.651Z,5.50
2019-02-09T17:09:37.806Z,5.40
2019-02-09T17:12:07.642Z,5.40
2019-02-09T17:14:37.521Z,5.30
2019-02-09T17:17:07.771Z,5.40
2019-02-09T17:19:38.047Z,5.30
2019-02-09T17:22:07.918Z,5.30
2019-02-09T17:24:37.757Z,5.30
2019-02-09T17:27:07.840Z,5.30
2019-02-09T17:29:39.249Z,5.40
2019-02-09T17:32:09.245Z,5.50
2019-02-09T17:34:40.914Z,5.50
2019-02-09T17:37:10.758Z,5.50
2019-02-09T17:39:41.219Z,5.50
2019-02-09T17:42:11.455Z,5.50
2019-02-09T17:44:41.311Z,5.40
2019-02-09T17:47:11.524Z,5.50
2019-02-09T17:49:41.760Z,5.40
2019-02-09T17:52:11.653Z,5.40
2019-02-09T17:54:41.389Z,5.50
2019-02-09T17:57:11.127Z,5.50
2019-02-09T17:59:41.427Z,5.50
2019-02-09T18:02:11.427Z,5.50
2019-02-09T18:04:48.276Z,5.50
2019-02-09T18:07:13.546Z,5.50
2019-02-09T18:09:46.314Z,5.50
2019-02-09T18:12:16.147Z,5.50
2019-02-09T18:14:46.070Z,5.50
2019-02-09T18:17:15.920Z,5.40
2019-02-09T18:19:45.879Z,5.30
2019-02-09T18:22:16.266Z,5.30
2019-02-09T18:24:46.046Z,5.30
2019-02-09T18:27:16.329Z,5.20
2019-02-09T18:29:46.252Z,5.20
2019-02-09T18:32:16.438Z,5.20
2019-02-09T18:34:46.468Z,5.20
2019-02-09T18:37:16.654Z,5.20
2019-02-09T18:39:46.730Z,5.20
2019-02-09T18:42:16.687Z,5.10
2019-02-09T18:44:46.595Z,5.00
2019-02-09T18:47:17.469Z,4.90
2019-02-09T18:49:47.212Z,4.90
2019-02-09T18:52:17.123Z,4.90
2019-02-09T18:54:46.927Z,5.00
2019-02-09T18:57:16.861Z,5.10
2019-02-09T18:59:46.776Z,5.10
2019-02-09T19:02:16.673Z,5.10
2019-02-09T19:04:46.412Z,5.10
2019-02-09T19:07:16.354Z,5.10
2019-02-09T19:09:46.315Z,5.00
2019-02-09T19:12:16.197Z,5.00
2019-02-09T19:14:46.038Z,5.00
2019-02-09T19:17:15.908Z,5.00
2019-02-09T19:19:45.974Z,5.00
2019-02-09T19:22:20.376Z,5.00
2019-02-09T19:24:47.659Z,4.90
2019-02-09T19:27:17.961Z,4.90
2019-02-09T19:29:47.840Z,4.90
2019-02-09T19:32:17.694Z,4.90
2019-02-09T19:34:47.816Z,4.80
2019-02-09T19:37:17.693Z,4.80
2019-02-09T19:39:47.844Z,4.80
2019-02-09T19:42:17.824Z,4.80
2019-02-09T19:44:47.729Z,4.70
2019-02-09T19:47:17.652Z,4.70
2019-02-09T19:49:47.672Z,4.60
2019-02-09T19:52:17.614Z,4.60
2019-02-09T19:54:47.837Z,4.60
2019-02-09T19:57:17.645Z,4.60
2019-02-09T19:59:47.816Z,4.70
2019-02-09T20:02:17.689Z,4.70
2019-02-09T20:04:47.570Z,4.80
2019-02-09T20:07:18.433Z,4.80
2019-02-09T20:09:48.453Z,4.80
2019-02-09T20:12:18.843Z,4.80
2019-02-09T20:14:49.341Z,4.80
2019-02-09T20:17:19.393Z,4.80
2019-02-09T20:19:49.137Z,4.70
2019-02-09T20:22:18.960Z,4.70
2019-02-09T20:24:48.767Z,4.70
2019-02-09T20:27:18.861Z,4.80
2019-02-09T20:29:48.956Z,4.70
2019-02-09T20:32:18.969Z,4.70
2019-02-09T20:34:48.986Z,4.70
2019-02-09T20:37:19.441Z,4.80
2019-02-09T20:39:49.338Z,4.80
2019-02-09T20:42:21.126Z,4.80
2019-02-09T20:44:51.293Z,4.80
2019-02-09T20:47:21.394Z,4.80
2019-02-09T20:49:52.883Z,4.80
2019-02-09T20:52:22.948Z,4.90
2019-02-09T20:54:54.417Z,4.90
2019-02-09T20:57:25.603Z,4.80
2019-02-09T20:59:56.143Z,4.80
2019-02-09T21:02:26.481Z,4.90
2019-02-09T21:04:56.422Z,4.90
2019-02-09T21:07:27.090Z,4.90
2019-02-09T21:09:57.072Z,4.90
2019-02-09T21:12:26.980Z,4.90
2019-02-09T21:14:57.126Z,4.90
2019-02-09T21:17:27.314Z,4.90
2019-02-09T21:19:57.381Z,4.90
2019-02-09T21:22:27.385Z,4.90
2019-02-09T21:24:57.311Z,5.00
2019-02-09T21:27:27.254Z,5.00
2019-02-09T21:29:57.248Z,4.90
2019-02-09T21:32:27.170Z,4.90
2019-02-09T21:34:57.057Z,4.80
2019-02-09T21:37:29.580Z,4.70
2019-02-09T21:39:59.914Z,4.60
2019-02-09T21:42:29.835Z,4.60
2019-02-09T21:44:59.923Z,4.60
2019-02-09T21:47:30.135Z,4.50
2019-02-09T21:50:00.007Z,4.50
2019-02-09T21:52:30.013Z,4.50
2019-02-09T21:55:00.009Z,4.30
2019-02-09T21:57:30.113Z,4.20
2019-02-09T21:59:59.924Z,4.30
2019-02-09T22:02:32.763Z,4.20
2019-02-09T22:05:02.610Z,4.20
2019-02-09T22:07:33.346Z,4.10
2019-02-09T22:10:03.248Z,4.00
2019-02-09T22:12:33.269Z,4.00
2019-02-09T22:15:03.507Z,3.90
2019-02-09T22:17:33.669Z,3.90
2019-02-09T22:20:04.120Z,3.80
2019-02-09T22:22:35.072Z,3.80
2019-02-09T22:25:06.375Z,3.80
2019-02-09T22:27:36.333Z,3.70
2019-02-09T22:30:07.508Z,3.60
2019-02-09T22:32:37.553Z,3.60
2019-02-09T22:35:08.142Z,3.60
2019-02-09T22:37:38.066Z,3.60
2019-02-09T22:40:11.690Z,3.80
2019-02-09T22:42:41.686Z,3.80
2019-02-09T22:45:11.681Z,3.80
2019-02-09T22:47:41.614Z,3.90
2019-02-09T22:50:19.204Z,4.00
2019-02-09T22:52:46.582Z,4.00
2019-02-09T22:55:16.584Z,4.00
2019-02-09T22:57:46.518Z,4.00
2019-02-09T23:00:23.092Z,4.10
2019-02-09T23:02:54.806Z,4.10
2019-02-09T23:06:08.108Z,4.20
2019-02-09T23:08:35.758Z,4.30
2019-02-09T23:11:05.639Z,4.30
2019-02-09T23:13:35.554Z,4.30
2019-02-09T23:16:05.456Z,4.50
2019-02-09T23:18:35.617Z,4.60
2019-02-09T23:21:05.496Z,4.60
2019-02-09T23:23:35.476Z,4.70
2019-02-09T23:26:05.499Z,4.80
2019-02-09T23:28:35.264Z,4.80
2019-02-09T23:31:05.122Z,4.90
2019-02-09T23:33:35.131Z,4.90
2019-02-09T23:36:04.938Z,5.00
2019-02-09T23:38:34.676Z,5.00
2019-02-09T23:41:04.490Z,5.10
2019-02-09T23:43:34.522Z,5.10
2019-02-09T23:46:04.432Z,5.10
2019-02-09T23:48:34.303Z,5.10
2019-02-09T23:51:04.241Z,5.20
2019-02-09T23:53:34.087Z,5.20
2019-02-09T23:56:04.083Z,5.20
2019-02-09T23:58:33.941Z,5.20
